Time;durP1;ratioP1;P1;durP2;ratioP2;P2;SDS_P1;SDS_P2;PMS_P1;PMS_P2;Temp;Humidity;BMP_temperature;BMP_pressure;BME280_temperature;BME280_humidity;BME280_pressure;Samples;Min_cycle;Max_cycle;Signal;HPM_P1;HPM_P2
2022/06/20 03:02:28;;;;;;;1.30;1.20;;;24.10;76.20;;;;;;5353114;22;21004;-71
2022/06/20 03:04:55;;;;;;;1.17;1.07;;;24.20;75.50;;;;;;5035127;28;20438;-71
2022/06/20 03:07:26;;;;;;;1.10;0.97;;;24.20;76.20;;;;;;5035046;28;20443;-69
2022/06/20 03:09:58;;;;;;;1.50;1.40;;;24.20;77.00;;;;;;5034709;28;20427;-68
2022/06/20 03:12:25;;;;;;;1.23;1.13;;;24.10;75.60;;;;;;5034923;28;20874;-68
2022/06/20 03:14:54;;;;;;;1.50;1.20;;;24.20;75.40;;;;;;5034879;28;20442;-68
2022/06/20 03:17:24;;;;;;;1.37;1.23;;;24.10;75.10;;;;;;5036185;28;20600;-68
2022/06/20 03:19:55;;;;;;;1.30;1.20;;;23.90;76.90;;;;;;5034785;28;20455;-69
2022/06/20 03:22:34;;;;;;;1.50;1.40;;;23.70;77.00;;;;;;5034698;28;20475;-68
2022/06/20 03:25:01;;;;;;;1.40;1.30;;;23.80;77.40;;;;;;5034754;28;20529;-68
2022/06/20 03:27:30;;;;;;;1.10;1.00;;;23.80;77.80;;;;;;5034389;28;20799;-69
2022/06/20 03:30:01;;;;;;;1.30;1.20;;;23.50;78.10;;;;;;5034596;28;20447;-69
2022/06/20 03:32:29;;;;;;;1.30;1.20;;;23.50;78.80;;;;;;5034606;28;20549;-68
2022/06/20 03:34:56;;;;;;;1.93;1.67;;;23.60;78.40;;;;;;5034451;28;20857;-69
2022/06/20 03:37:23;;;;;;;1.53;1.43;;;23.60;78.00;;;;;;5034254;28;20536;-69
2022/06/20 03:39:50;;;;;;;1.40;1.30;;;23.70;78.40;;;;;;5034443;28;20538;-69
2022/06/20 03:42:17;;;;;;;1.27;1.17;;;23.50;76.60;;;;;;5034229;28;20474;-69
2022/06/20 03:44:50;;;;;;;1.60;1.30;;;23.50;78.30;;;;;;5034250;28;20790;-69
2022/06/20 03:47:22;;;;;;;1.47;1.30;;;23.40;78.10;;;;;;5034260;28;20502;-68
2022/06/20 03:49:55;;;;;;;1.83;1.20;;;23.50;77.80;;;;;;5033886;28;20482;-68
2022/06/20 03:52:23;;;;;;;1.53;1.23;;;23.60;77.70;;;;;;5034055;28;20498;-69
2022/06/20 03:54:54;;;;;;;1.40;1.07;;;23.80;77.90;;;;;;5033770;28;20954;-69
2022/06/20 03:57:24;;;;;;;1.30;1.20;;;23.90;77.30;;;;;;5034004;28;20447;-69
2022/06/20 03:59:57;;;;;;;1.20;1.10;;;23.90;77.50;;;;;;5033782;28;20906;-69
2022/06/20 04:02:29;;;;;;;1.43;1.33;;;23.80;78.70;;;;;;5033847;28;20471;-69
2022/06/20 04:05:01;;;;;;;1.63;1.50;;;23.90;78.30;;;;;;5034242;28;20486;-69
2022/06/20 04:07:32;;;;;;;1.13;1.00;;;24.00;78.40;;;;;;5033894;28;20493;-68
2022/06/20 04:12:55;;;;;;;1.27;1.17;;;23.90;78.40;;;;;;5033580;28;20451;-69
2022/06/20 04:15:28;;;;;;;1.40;1.30;;;23.80;79.10;;;;;;5033788;28;20485;-69
2022/06/20 04:21:11;;;;;;;1.47;1.37;;;24.00;78.30;;;;;;4953302;29;20500;-68
2022/06/20 04:23:44;;;;;;;1.30;1.20;;;23.90;78.50;;;;;;5021569;28;20451;-69
2022/06/20 04:26:17;;;;;;;1.30;1.20;;;23.90;78.90;;;;;;5033800;28;20432;-69
2022/06/20 04:28:50;;;;;;;1.20;1.10;;;23.90;78.80;;;;;;5033649;28;20510;-69
2022/06/20 04:31:21;;;;;;;1.30;1.20;;;23.70;78.50;;;;;;5033481;28;20497;-68
2022/06/20 04:33:55;;;;;;;1.13;1.13;;;23.50;79.50;;;;;;5033496;28;20439;-69
2022/06/20 04:36:32;;;;;;;1.30;1.20;;;23.40;80.00;;;;;;5033141;28;20478;-69
2022/06/20 04:39:06;;;;;;;1.37;1.20;;;23.50;80.10;;;;;;5033395;28;20885;-68
2022/06/20 04:41:37;;;;;;;1.40;1.30;;;23.50;80.00;;;;;;5033393;28;20475;-69
2022/06/20 04:44:12;;;;;;;2.00;1.40;;;23.60;79.60;;;;;;5034281;28;20523;-69
2022/06/20 04:46:45;;;;;;;1.63;1.17;;;23.60;79.10;;;;;;5033568;28;20431;-69
2022/06/20 04:49:14;;;;;;;1.40;1.30;;;23.70;78.90;;;;;;5032852;28;20489;-69
2022/06/20 04:51:46;;;;;;;1.50;1.20;;;23.80;78.50;;;;;;5033217;28;20466;-68
2022/06/20 04:54:17;;;;;;;1.40;1.30;;;23.90;78.70;;;;;;5033346;28;20485;-68
2022/06/20 04:56:45;;;;;;;1.00;1.00;;;23.90;79.00;;;;;;5033273;28;20434;-69
2022/06/20 04:59:17;;;;;;;1.77;1.20;;;24.00;78.60;;;;;;5032852;28;20904;-69
2022/06/20 05:01:44;;;;;;;1.50;1.40;;;24.00;78.30;;;;;;5032859;28;20997;-68
2022/06/20 05:04:23;;;;;;;1.30;1.17;;;24.00;78.60;;;;;;5033195;28;20451;-69
2022/06/20 05:06:54;;;;;;;1.43;1.33;;;24.10;78.60;;;;;;5033246;28;20440;-67
2022/06/20 05:09:27;;;;;;;1.80;1.60;;;24.20;78.40;;;;;;5033206;28;20480;-69
2022/06/20 05:12:02;;;;;;;1.37;1.27;;;24.30;78.20;;;;;;5033332;28;20475;-69
2022/06/20 05:14:38;;;;;;;1.43;1.33;;;24.30;78.30;;;;;;5033438;28;20790;-69
2022/06/20 05:17:12;;;;;;;1.10;1.00;;;24.20;78.40;;;;;;5033232;28;20489;-68
2022/06/20 05:19:44;;;;;;;1.30;1.10;;;24.20;78.20;;;;;;5033180;28;20462;-69
2022/06/20 05:22:15;;;;;;;1.27;1.17;;;24.30;77.70;;;;;;5033198;28;20471;-68
2022/06/20 05:24:44;;;;;;;1.60;1.50;;;24.20;78.20;;;;;;5033151;28;20481;-68
2022/06/20 05:27:18;;;;;;;1.50;1.40;;;24.20;78.30;;;;;;5033600;28;20459;-68
2022/06/20 05:29:46;;;;;;;1.33;1.23;;;24.30;78.30;;;;;;5033228;28;20833;-68
2022/06/20 05:32:21;;;;;;;1.50;1.40;;;24.10;78.80;;;;;;5032836;28;20478;-68
2022/06/20 05:34:55;;;;;;;1.37;1.23;;;24.10;79.00;;;;;;5032893;28;20906;-69
2022/06/20 05:37:31;;;;;;;1.50;1.40;;;24.20;79.30;;;;;;5033154;28;20416;-69
2022/06/20 05:40:05;;;;;;;1.03;1.03;;;24.30;79.00;;;;;;5033059;28;20474;-69
2022/06/20 05:42:32;;;;;;;1.40;1.30;;;24.30;79.10;;;;;;5032836;28;20451;-69
2022/06/20 05:44:59;;;;;;;1.60;1.20;;;24.20;79.20;;;;;;5033008;28;20501;-68
2022/06/20 05:47:29;;;;;;;2.13;1.27;;;24.10;79.50;;;;;;5033015;28;20455;-69
2022/06/20 05:50:00;;;;;;;1.30;1.20;;;24.00;79.80;;;;;;5033058;28;20443;-69
2022/06/20 05:52:30;;;;;;;1.20;1.10;;;23.80;80.30;;;;;;5032908;28;20479;-68
2022/06/20 05:55:01;;;;;;;1.40;1.30;;;23.70;80.70;;;;;;5033061;28;20562;-68
2022/06/20 05:57:30;;;;;;;1.20;1.10;;;23.70;81.00;;;;;;5033097;28;20447;-69
2022/06/20 06:00:00;;;;;;;1.30;1.20;;;23.60;81.10;;;;;;5032719;28;20528;-68
2022/06/20 06:02:31;;;;;;;1.30;1.20;;;23.80;80.80;;;;;;5035467;28;20490;-68
2022/06/20 06:05:05;;;;;;;1.10;1.00;;;23.80;80.20;;;;;;5036280;28;20523;-69
2022/06/20 06:07:38;;;;;;;1.40;1.30;;;23.90;79.70;;;;;;5036164;28;20442;-68
2022/06/20 06:10:19;;;;;;;1.23;1.17;;;24.00;79.50;;;;;;5036164;28;20462;-69
2022/06/20 06:12:53;;;;;;;1.30;1.20;;;24.10;79.20;;;;;;5035728;28;20990;-70
2022/06/20 06:15:34;;;;;;;1.20;1.10;;;24.10;79.00;;;;;;5036021;28;20439;-68
2022/06/20 06:18:04;;;;;;;1.00;0.90;;;24.10;78.60;;;;;;5035555;28;20454;-69
2022/06/20 06:20:32;;;;;;;1.70;1.27;;;24.20;79.20;;;;;;5035813;28;20509;-71
2022/06/20 06:23:06;;;;;;;1.13;1.03;;;24.20;79.50;;;;;;5035872;28;20889;-71
2022/06/20 06:25:35;;;;;;;1.27;1.27;;;24.30;79.50;;;;;;5035839;28;20483;-70
2022/06/20 06:28:05;;;;;;;1.50;1.40;;;24.40;79.20;;;;;;5035753;28;20447;-70
2022/06/20 06:30:37;;;;;;;1.47;1.37;;;24.50;78.80;;;;;;5035612;28;20509;-69
2022/06/20 06:33:11;;;;;;;1.17;1.07;;;24.60;77.90;;;;;;5035657;28;20439;-70
2022/06/20 06:35:42;;;;;;;1.00;1.00;;;24.80;77.60;;;;;;5035667;28;20431;-70
2022/06/20 06:38:15;;;;;;;1.60;1.50;;;24.70;76.80;;;;;;5035402;28;20474;-69
2022/06/20 06:40:48;;;;;;;1.20;1.20;;;24.70;78.00;;;;;;5035459;28;20435;-69
2022/06/20 06:43:19;;;;;;;0.90;0.90;;;24.50;78.00;;;;;;5035503;28;20431;-70
2022/06/20 06:45:48;;;;;;;1.30;1.20;;;24.70;78.30;;;;;;5035484;28;20431;-69
2022/06/20 06:48:19;;;;;;;1.23;1.13;;;24.70;78.00;;;;;;5035252;28;20505;-69
2022/06/20 06:50:50;;;;;;;1.00;1.00;;;24.90;78.80;;;;;;5035203;28;20467;-69
2022/06/20 06:53:25;;;;;;;1.30;1.10;;;25.10;77.30;;;;;;5035503;28;20439;-69
2022/06/20 06:55:57;;;;;;;1.40;1.30;;;25.40;77.60;;;;;;5034910;28;20977;-69
2022/06/20 06:58:29;;;;;;;1.17;1.07;;;25.40;75.70;;;;;;5035066;28;20463;-70
2022/06/20 07:01:00;;;;;;;0.93;0.93;;;25.60;76.30;;;;;;5034846;28;20479;-69
2022/06/20 07:03:31;;;;;;;1.00;0.90;;;25.80;74.90;;;;;;5034705;28;20919;-69
2022/06/20 07:06:02;;;;;;;1.27;1.17;;;26.10;74.10;;;;;;5035047;28;20432;-69
2022/06/20 07:08:37;;;;;;;1.10;1.00;;;26.30;72.90;;;;;;5035000;28;20478;-69
2022/06/20 07:11:11;;;;;;;1.00;1.00;;;26.00;72.80;;;;;;5035095;28;20455;-69
2022/06/20 07:13:42;;;;;;;1.30;1.00;;;25.90;73.00;;;;;;5034735;28;20436;-69
2022/06/20 07:16:18;;;;;;;1.00;1.00;;;26.00;73.20;;;;;;5034802;28;20462;-69
2022/06/20 07:18:48;;;;;;;1.10;1.00;;;26.20;74.50;;;;;;5034688;28;20545;-69
2022/06/20 07:21:18;;;;;;;1.30;1.03;;;26.50;75.00;;;;;;5034680;28;20467;-69
2022/06/20 07:23:49;;;;;;;1.13;1.03;;;26.80;72.40;;;;;;5034254;28;20899;-70
2022/06/20 07:26:19;;;;;;;1.10;1.00;;;27.10;72.50;;;;;;5034722;28;20522;-69
2022/06/20 07:28:50;;;;;;;0.93;0.80;;;27.40;72.10;;;;;;5034560;28;20539;-70
2022/06/20 07:31:21;;;;;;;0.90;0.90;;;27.70;72.10;;;;;;5034492;28;20868;-69
2022/06/20 07:33:54;;;;;;;1.13;1.07;;;27.80;71.70;;;;;;5035053;28;20432;-70
2022/06/20 07:36:26;;;;;;;0.90;0.90;;;28.00;71.80;;;;;;5034558;28;20779;-69
2022/06/20 07:39:00;;;;;;;1.40;1.30;;;28.20;71.30;;;;;;5035238;28;20471;-70
2022/06/20 07:41:33;;;;;;;1.37;1.27;;;28.30;71.70;;;;;;5034288;28;20467;-69
2022/06/20 07:44:06;;;;;;;1.03;1.03;;;28.50;71.80;;;;;;5034670;28;20458;-69
2022/06/20 07:46:40;;;;;;;1.70;1.47;;;28.70;70.60;;;;;;5034639;28;20436;-70
2022/06/20 07:49:12;;;;;;;1.13;1.03;;;29.00;70.60;;;;;;5034061;28;20876;-70
2022/06/20 07:51:42;;;;;;;1.50;1.07;;;29.10;68.80;;;;;;5034208;28;20525;-70
2022/06/20 07:54:14;;;;;;;1.07;1.00;;;29.20;68.20;;;;;;5034218;28;20862;-70
2022/06/20 07:56:47;;;;;;;1.10;1.00;;;29.50;67.00;;;;;;5034291;28;20518;-71
2022/06/20 07:59:18;;;;;;;1.40;1.30;;;29.40;64.90;;;;;;5034086;28;20463;-70
2022/06/20 08:01:52;;;;;;;0.97;0.97;;;29.50;66.20;;;;;;5033612;28;20997;-69
2022/06/20 08:04:27;;;;;;;0.90;0.90;;;29.50;64.50;;;;;;5034075;28;20485;-70
2022/06/20 08:06:57;;;;;;;1.10;1.00;;;29.50;65.80;;;;;;5034345;28;20439;-70
2022/06/20 08:09:32;;;;;;;0.93;0.90;;;29.20;64.80;;;;;;5034088;28;20424;-70
2022/06/20 08:12:03;;;;;;;0.80;0.80;;;29.10;65.50;;;;;;5033965;28;20528;-70
2022/06/20 08:14:38;;;;;;;1.00;0.90;;;29.00;65.60;;;;;;5034016;28;20435;-70
2022/06/20 08:17:09;;;;;;;0.90;0.90;;;28.90;63.20;;;;;;5033353;28;20851;-70
2022/06/20 08:19:37;;;;;;;1.67;1.10;;;28.80;61.50;;;;;;5033805;28;20514;-70
2022/06/20 08:22:10;;;;;;;0.90;0.80;;;28.90;62.50;;;;;;5033668;28;20467;-70
2022/06/20 08:24:45;;;;;;;1.00;0.90;;;28.90;61.20;;;;;;5032612;28;20855;-70
2022/06/20 08:27:27;;;;;;;0.90;0.80;;;29.00;62.10;;;;;;5033651;28;20514;-70
2022/06/20 08:30:02;;;;;;;0.90;0.90;;;29.20;62.00;;;;;;5033559;28;20431;-70
2022/06/20 08:32:34;;;;;;;1.00;0.90;;;29.40;61.30;;;;;;5033183;28;20973;-70
2022/06/20 08:35:10;;;;;;;1.07;0.87;;;29.40;60.30;;;;;;5033516;28;20846;-71
2022/06/20 08:37:42;;;;;;;1.10;1.00;;;29.50;60.60;;;;;;5033251;28;20910;-70
2022/06/20 08:40:33;;;;;;;1.07;0.97;;;29.70;60.80;;;;;;5033340;28;20467;-71
2022/06/20 08:43:17;;;;;;;0.90;0.80;;;29.80;62.30;;;;;;5033112;28;20840;-71
2022/06/20 08:45:58;;;;;;;0.90;0.90;;;29.90;60.40;;;;;;5033420;28;20431;-70
2022/06/20 08:48:56;;;;;;;0.93;0.90;;;29.80;59.30;;;;;;5033691;28;20489;-70
2022/06/20 08:52:15;;;;;;;1.00;0.80;;;29.90;59.70;;;;;;5033524;28;20464;-70
2022/06/20 08:54:54;;;;;;;0.70;0.70;;;30.10;59.20;;;;;;4972238;28;20430;-70
2022/06/20 08:57:34;;;;;;;1.00;0.90;;;30.20;58.30;;;;;;4972288;28;20434;-70
2022/06/20 09:00:10;;;;;;;0.80;0.73;;;30.30;57.30;;;;;;5017544;28;20487;-70
2022/06/20 09:03:07;;;;;;;0.90;0.80;;;30.40;60.90;;;;;;5032794;28;20493;-71
2022/06/20 09:05:58;;;;;;;0.80;0.80;;;30.50;57.40;;;;;;5033128;28;20440;-70
2022/06/20 09:08:55;;;;;;;1.13;0.80;;;30.40;59.00;;;;;;5033093;28;20424;-70
2022/06/20 09:11:41;;;;;;;1.17;1.07;;;30.40;56.30;;;;;;5028028;28;20544;-70
2022/06/20 09:14:28;;;;;;;1.30;1.20;;;30.50;56.90;;;;;;5033077;28;20427;-70
2022/06/20 09:17:06;;;;;;;1.10;1.00;;;30.10;58.00;;;;;;5034105;28;20906;-71
2022/06/20 09:19:46;;;;;;;1.10;1.00;;;30.30;57.90;;;;;;5032640;28;20836;-70
2022/06/20 09:22:27;;;;;;;0.80;0.80;;;30.40;58.20;;;;;;5033029;28;20879;-70
2022/06/20 09:25:09;;;;;;;1.00;0.80;;;30.50;59.70;;;;;;5033044;28;20486;-70
2022/06/20 09:27:49;;;;;;;0.80;0.80;;;30.80;56.80;;;;;;5032687;28;20903;-70
2022/06/20 09:30:23;;;;;;;0.90;0.90;;;30.70;56.80;;;;;;5033211;28;20534;-70
2022/06/20 09:33:26;;;;;;;1.37;0.93;;;30.00;58.40;;;;;;5032896;28;20466;-70
2022/06/20 09:36:29;;;;;;;1.40;0.90;;;30.10;58.10;;;;;;5035428;28;20501;-70
2022/06/20 09:39:14;;;;;;;1.33;0.97;;;29.80;57.50;;;;;;5036519;28;20427;-70
2022/06/20 09:41:50;;;;;;;1.07;1.00;;;29.40;58.40;;;;;;5036404;28;20478;-70
2022/06/20 09:44:23;;;;;;;0.97;0.90;;;29.50;58.20;;;;;;5036564;28;20435;-70
2022/06/20 09:47:07;;;;;;;0.77;0.77;;;29.60;57.60;;;;;;5036538;28;20423;-71
2022/06/20 09:49:41;;;;;;;1.00;0.90;;;29.70;57.80;;;;;;5036486;28;20515;-70
2022/06/20 09:52:15;;;;;;;1.03;0.97;;;29.70;56.20;;;;;;5036321;28;20478;-70
2022/06/20 09:54:53;;;;;;;1.40;0.93;;;29.50;57.30;;;;;;5036104;28;20907;-70
2022/06/20 09:57:32;;;;;;;1.00;0.80;;;29.80;56.50;;;;;;5036314;28;20455;-70
2022/06/20 10:00:06;;;;;;;1.10;1.00;;;29.90;58.10;;;;;;5036212;28;20470;-70
2022/06/20 10:02:44;;;;;;;1.20;1.10;;;30.10;56.50;;;;;;5035918;28;20474;-70
2022/06/20 10:05:19;;;;;;;1.00;0.90;;;30.00;55.10;;;;;;5036230;28;20431;-70
2022/06/20 10:07:52;;;;;;;1.10;1.00;;;29.80;56.30;;;;;;5035839;28;20902;-69
2022/06/20 10:10:23;;;;;;;0.80;0.80;;;29.70;56.80;;;;;;5035768;28;20961;-70
2022/06/20 10:12:57;;;;;;;1.10;0.80;;;29.80;57.10;;;;;;5035829;28;20489;-69
2022/06/20 10:15:35;;;;;;;0.80;0.80;;;29.80;56.50;;;;;;5035930;28;20494;-69
2022/06/20 10:18:17;;;;;;;1.17;1.00;;;29.80;56.20;;;;;;5036008;28;20431;-70
2022/06/20 10:20:52;;;;;;;0.73;0.70;;;29.80;56.30;;;;;;5035472;28;20874;-70
2022/06/20 10:23:42;;;;;;;0.73;0.73;;;29.80;57.60;;;;;;5035838;28;20439;-70
2022/06/20 10:26:25;;;;;;;1.00;0.93;;;30.00;59.40;;;;;;5035792;28;20439;-70
2022/06/20 10:29:00;;;;;;;1.50;1.00;;;30.40;55.70;;;;;;5035549;28;20825;-70
2022/06/20 10:31:40;;;;;;;0.90;0.80;;;30.70;55.70;;;;;;5035671;28;20526;-70
2022/06/20 10:34:13;;;;;;;1.10;1.00;;;30.90;55.90;;;;;;5036202;28;20440;-70
2022/06/20 10:36:50;;;;;;;0.70;0.70;;;30.80;53.40;;;;;;5035670;28;20432;-70
2022/06/20 10:39:28;;;;;;;0.80;0.80;;;30.70;53.90;;;;;;5035537;28;20431;-70
2022/06/20 10:42:03;;;;;;;0.97;0.90;;;30.80;54.00;;;;;;5035503;28;20471;-70
2022/06/20 10:44:41;;;;;;;1.23;1.13;;;31.00;54.80;;;;;;5035561;28;20427;-70
2022/06/20 10:47:16;;;;;;;0.90;0.73;;;31.00;54.60;;;;;;5034712;28;20438;-70
2022/06/20 10:50:15;;;;;;;0.80;0.80;;;30.80;53.40;;;;;;5035386;28;20485;-70
2022/06/20 10:53:08;;;;;;;1.00;1.00;;;30.50;54.20;;;;;;5035317;28;20521;-70
2022/06/20 10:55:43;;;;;;;1.57;0.80;;;30.60;54.70;;;;;;5035290;28;20523;-70
2022/06/20 10:58:30;;;;;;;1.00;0.80;;;30.50;55.10;;;;;;5035249;28;20431;-70
2022/06/20 11:01:06;;;;;;;0.80;0.70;;;30.40;55.00;;;;;;5034872;28;20479;-70
2022/06/20 11:04:00;;;;;;;0.80;0.80;;;30.50;52.60;;;;;;5035159;28;20466;-71
2022/06/20 11:06:38;;;;;;;0.70;0.60;;;30.40;53.20;;;;;;5032932;28;20505;-70
2022/06/20 11:09:13;;;;;;;0.70;0.70;;;30.50;53.00;;;;;;5035036;28;20435;-71
2022/06/20 11:11:45;;;;;;;0.90;0.80;;;30.70;52.90;;;;;;5034903;28;20462;-70
2022/06/20 11:14:21;;;;;;;0.80;0.70;;;30.90;51.80;;;;;;5034971;28;20485;-69
2022/06/20 11:16:59;;;;;;;1.00;0.90;;;31.00;51.70;;;;;;5034844;28;20470;-70
2022/06/20 11:19:39;;;;;;;0.70;0.60;;;31.10;50.50;;;;;;5034858;28;20427;-69
2022/06/20 11:22:35;;;;;;;0.70;0.63;;;31.10;51.20;;;;;;5034719;28;20463;-70
2022/06/20 11:25:13;;;;;;;0.97;0.80;;;31.20;51.00;;;;;;5034715;28;20467;-70
2022/06/20 11:28:07;;;;;;;0.73;0.70;;;31.30;51.20;;;;;;5034351;28;20981;-69
2022/06/20 11:30:41;;;;;;;0.70;0.70;;;30.90;50.50;;;;;;5034577;28;20515;-71
2022/06/20 11:33:22;;;;;;;0.80;0.80;;;30.50;51.50;;;;;;5034569;28;20474;-70
2022/06/20 11:35:55;;;;;;;0.70;0.70;;;30.30;52.20;;;;;;5034508;28;20494;-70
2022/06/20 11:38:38;;;;;;;0.73;0.63;;;30.40;51.50;;;;;;5034123;28;20846;-70
2022/06/20 11:41:11;;;;;;;1.20;0.80;;;30.40;52.60;;;;;;5034255;28;20487;-70
2022/06/20 11:43:53;;;;;;;0.90;0.70;;;30.60;51.70;;;;;;5034385;28;20486;-70
2022/06/20 11:46:38;;;;;;;0.70;0.70;;;30.70;51.90;;;;;;5034318;28;20439;-71
2022/06/20 11:49:18;;;;;;;0.80;0.77;;;30.70;51.70;;;;;;5034022;28;20446;-69
2022/06/20 11:51:54;;;;;;;0.70;0.70;;;30.80;51.60;;;;;;5033649;28;20459;-69
2022/06/20 11:54:34;;;;;;;0.90;0.80;;;30.90;52.20;;;;;;5034169;28;20822;-70
2022/06/20 11:57:10;;;;;;;0.90;0.80;;;30.80;52.60;;;;;;5033811;28;20994;-70
2022/06/20 11:59:47;;;;;;;0.80;0.70;;;30.60;53.30;;;;;;5033809;28;20423;-70
2022/06/20 12:02:27;;;;;;;0.90;0.90;;;30.30;54.80;;;;;;5033828;28;20536;-70
2022/06/20 12:04:58;;;;;;;0.97;0.90;;;30.20;55.20;;;;;;5034041;28;20439;-70
2022/06/20 12:07:32;;;;;;;1.07;0.97;;;29.80;55.60;;;;;;5033917;28;20448;-70
2022/06/20 12:10:05;;;;;;;0.90;0.90;;;29.70;57.70;;;;;;5034155;28;20427;-70
2022/06/20 12:12:43;;;;;;;0.90;0.70;;;29.90;56.60;;;;;;5034005;28;20463;-71
2022/06/20 12:15:35;;;;;;;0.80;0.77;;;29.90;54.60;;;;;;5034436;28;20562;-70
2022/06/20 12:18:19;;;;;;;0.80;0.70;;;29.70;54.70;;;;;;5033814;28;20475;-69
2022/06/20 12:23:42;;;;;;;0.70;0.70;;;29.30;54.20;;;;;;5033514;28;20542;-70
2022/06/20 12:26:13;;;;;;;0.70;0.70;;;29.00;53.90;;;;;;5033637;28;20431;-70
2022/06/20 12:28:45;;;;;;;1.00;0.70;;;28.80;55.50;;;;;;5033481;28;20428;-70
2022/06/20 12:31:17;;;;;;;0.70;0.70;;;28.80;55.40;;;;;;5033487;28;20525;-71
2022/06/20 12:33:47;;;;;;;0.80;0.70;;;28.60;55.80;;;;;;5033603;28;20462;-70
2022/06/20 12:36:23;;;;;;;0.80;0.70;;;28.60;55.40;;;;;;5033451;28;20428;-70
2022/06/20 12:38:57;;;;;;;0.70;0.70;;;28.40;55.50;;;;;;5033092;28;20834;-71
2022/06/20 12:41:27;;;;;;;0.77;0.70;;;28.40;56.00;;;;;;5033317;28;20479;-71
2022/06/20 12:44:12;;;;;;;0.80;0.70;;;28.30;55.20;;;;;;5033336;28;20443;-71
2022/06/20 12:46:50;;;;;;;0.70;0.70;;;28.60;55.10;;;;;;5033309;28;20432;-71
2022/06/20 12:49:45;;;;;;;0.90;0.70;;;28.50;55.40;;;;;;5033328;28;20428;-71
2022/06/20 12:52:19;;;;;;;1.83;0.93;;;28.60;55.70;;;;;;5033202;28;20769;-71
2022/06/20 12:55:03;;;;;;;0.97;0.87;;;28.80;57.70;;;;;;5033332;28;20431;-72
2022/06/20 12:57:54;;;;;;;1.30;0.77;;;29.00;58.20;;;;;;5033092;28;20485;-72
2022/06/20 13:00:34;;;;;;;2.47;1.30;;;29.00;57.80;;;;;;5033209;28;20537;-71
2022/06/20 13:03:28;;;;;;;0.80;0.70;;;29.00;57.80;;;;;;5032909;28;20466;-72
2022/06/20 13:06:33;;;;;;;0.80;0.80;;;29.10;58.40;;;;;;5033616;28;20526;-72
2022/06/20 13:09:21;;;;;;;0.90;0.80;;;29.40;56.90;;;;;;5033657;28;20432;-72
2022/06/20 13:11:59;;;;;;;1.10;0.93;;;29.40;57.20;;;;;;5037073;28;20532;-72
2022/06/20 13:14:44;;;;;;;0.80;0.73;;;29.40;56.40;;;;;;5037244;28;20443;-73
2022/06/20 13:17:28;;;;;;;1.03;0.93;;;29.30;56.50;;;;;;5037244;28;20544;-71
2022/06/20 13:20:29;;;;;;;0.70;0.70;;;29.30;57.50;;;;;;5037149;28;20443;-70
2022/06/20 13:23:05;;;;;;;1.53;1.00;;;29.30;56.60;;;;;;5037216;28;20419;-71
2022/06/20 13:25:42;;;;;;;0.80;0.70;;;29.00;57.80;;;;;;5036965;28;20530;-70
2022/06/20 13:28:19;;;;;;;0.80;0.80;;;28.80;58.90;;;;;;5037066;28;20431;-71
2022/06/20 13:30:59;;;;;;;0.90;0.83;;;28.60;59.00;;;;;;5036801;28;20467;-71
2022/06/20 13:33:37;;;;;;;1.60;1.37;;;28.50;59.60;;;;;;5036850;28;20494;-72
2022/06/20 13:36:18;;;;;;;2.90;1.70;;;28.20;60.90;;;;;;5036808;28;20518;-71
2022/06/20 13:38:51;;;;;;;3.13;1.03;;;28.30;60.30;;;;;;5036424;28;20860;-71
2022/06/20 13:41:22;;;;;;;2.60;1.10;;;28.20;61.20;;;;;;5036493;28;20522;-72
2022/06/20 13:44:00;;;;;;;1.30;1.10;;;28.00;61.10;;;;;;5036592;28;20514;-71
2022/06/20 13:46:34;;;;;;;1.10;1.03;;;27.70;62.40;;;;;;5036283;28;20427;-71
2022/06/20 13:49:10;;;;;;;1.10;1.00;;;27.40;62.50;;;;;;5036532;28;20488;-72
2022/06/20 13:51:43;;;;;;;1.77;1.30;;;27.30;62.90;;;;;;5036374;28;20517;-71
2022/06/20 13:54:19;;;;;;;1.00;0.90;;;27.10;63.70;;;;;;5036381;28;20435;-71
2022/06/20 13:56:58;;;;;;;0.90;0.90;;;26.80;64.30;;;;;;5036340;28;20553;-70
2022/06/20 13:59:31;;;;;;;0.70;0.70;;;26.60;64.50;;;;;;5036158;28;20424;-71
2022/06/20 14:02:04;;;;;;;1.00;0.80;;;26.40;65.10;;;;;;5035545;28;20908;-71
2022/06/20 14:04:33;;;;;;;1.10;1.00;;;26.40;65.30;;;;;;5036264;28;20958;-71
2022/06/20 14:07:02;;;;;;;1.10;1.00;;;26.30;65.90;;;;;;5036262;28;20447;-71
2022/06/20 14:09:33;;;;;;;1.20;1.10;;;26.10;66.10;;;;;;5036113;28;20451;-70
2022/06/20 14:12:02;;;;;;;1.07;0.90;;;26.10;66.40;;;;;;5036070;28;20463;-71
2022/06/20 14:14:33;;;;;;;0.70;0.70;;;26.20;66.70;;;;;;5035773;28;20878;-71
2022/06/20 14:17:04;;;;;;;0.97;0.90;;;26.20;66.00;;;;;;5036075;28;20518;-70
2022/06/20 14:19:34;;;;;;;0.83;0.83;;;26.20;65.90;;;;;;5036088;28;20455;-70
2022/06/20 14:22:02;;;;;;;0.80;0.60;;;26.10;66.40;;;;;;5034611;28;20596;-71
2022/06/20 14:24:32;;;;;;;0.80;0.70;;;26.10;65.90;;;;;;5035742;28;21000;-71
2022/06/20 14:27:03;;;;;;;1.13;1.03;;;26.10;66.00;;;;;;5035965;28;20444;-71
2022/06/20 14:29:34;;;;;;;1.10;1.00;;;25.90;66.60;;;;;;5035760;28;20482;-71
2022/06/20 14:32:11;;;;;;;0.80;0.80;;;25.80;66.80;;;;;;5035765;28;20459;-70
2022/06/20 14:35:20;;;;;;;0.80;0.80;;;25.70;66.90;;;;;;5035768;28;20438;-70
2022/06/20 14:37:39;;;;;;;0.80;0.80;;;25.60;66.70;;;;;;5035275;28;20444;-70
2022/06/20 14:40:13;;;;;;;0.90;0.80;;;25.50;67.10;;;;;;5035617;28;20436;-69
2022/06/20 14:42:44;;;;;;;1.13;0.80;;;25.60;67.10;;;;;;5035407;28;20491;-70
2022/06/20 14:45:15;;;;;;;1.07;0.90;;;25.70;67.20;;;;;;5035495;28;20478;-70
2022/06/20 14:47:55;;;;;;;0.87;0.80;;;25.80;66.90;;;;;;5035732;28;20478;-70
2022/06/20 14:50:25;;;;;;;0.80;0.77;;;25.80;66.20;;;;;;5035756;28;20436;-70
2022/06/20 14:53:02;;;;;;;0.83;0.70;;;25.80;66.00;;;;;;5035286;28;20444;-70
2022/06/20 14:55:39;;;;;;;1.00;0.77;;;25.70;66.80;;;;;;5035354;28;20867;-71
2022/06/20 14:58:19;;;;;;;0.80;0.70;;;25.80;66.70;;;;;;5035275;28;20517;-70
2022/06/20 15:00:53;;;;;;;1.47;0.87;;;26.00;66.70;;;;;;5035086;28;20867;-71
2022/06/20 15:03:28;;;;;;;0.90;0.70;;;26.30;66.10;;;;;;5035465;28;20527;-71
2022/06/20 15:06:05;;;;;;;0.80;0.70;;;26.50;64.70;;;;;;5035445;28;20435;-71
2022/06/20 15:08:40;;;;;;;0.80;0.70;;;26.50;64.90;;;;;;5034833;28;20944;-70
2022/06/20 15:11:25;;;;;;;0.80;0.80;;;26.60;64.90;;;;;;5035069;28;20498;-70
2022/06/20 15:13:55;;;;;;;1.00;0.70;;;26.40;64.50;;;;;;5034837;28;20499;-71
2022/06/20 15:16:26;;;;;;;0.80;0.70;;;26.60;64.70;;;;;;5036614;28;20522;-70
2022/06/20 15:19:14;;;;;;;0.80;0.70;;;26.80;64.30;;;;;;5035126;28;20443;-70
2022/06/20 15:21:48;;;;;;;0.90;0.77;;;26.80;63.90;;;;;;5034884;28;20891;-71
2022/06/20 15:24:29;;;;;;;0.70;0.63;;;26.80;63.80;;;;;;5034814;28;20436;-71
2022/06/20 15:27:01;;;;;;;0.70;0.70;;;26.80;64.00;;;;;;5034524;28;20985;-71
2022/06/20 15:29:45;;;;;;;0.77;0.70;;;26.80;63.90;;;;;;5034698;28;20449;-71
2022/06/20 15:32:38;;;;;;;0.80;0.70;;;27.00;63.80;;;;;;5034723;28;20463;-71
2022/06/20 15:35:56;;;;;;;0.80;0.73;;;27.10;63.00;;;;;;5034708;28;20466;-71
2022/06/20 15:38:48;;;;;;;0.80;0.70;;;27.10;62.70;;;;;;5030362;28;20459;-71
2022/06/20 15:41:34;;;;;;;0.77;0.70;;;27.30;62.20;;;;;;5034523;28;20483;-71
2022/06/20 15:44:06;;;;;;;0.80;0.77;;;27.40;62.10;;;;;;5034369;28;20432;-70
2022/06/20 15:46:44;;;;;;;0.80;0.80;;;27.30;62.70;;;;;;5034062;28;20958;-70
2022/06/20 15:49:29;;;;;;;0.80;0.80;;;27.10;63.10;;;;;;5033998;28;20905;-70
2022/06/20 15:52:08;;;;;;;0.80;0.80;;;27.00;62.80;;;;;;5034169;28;20513;-70
2022/06/20 15:54:52;;;;;;;0.90;0.90;;;27.10;62.60;;;;;;5034279;28;20439;-71
2022/06/20 15:57:29;;;;;;;0.73;0.73;;;27.00;63.00;;;;;;5033947;28;20965;-71
2022/06/20 16:00:15;;;;;;;0.80;0.80;;;26.90;63.50;;;;;;5034130;28;20459;-71
2022/06/20 16:03:00;;;;;;;0.80;0.80;;;26.90;63.00;;;;;;5033635;28;20494;-71
2022/06/20 16:05:35;;;;;;;0.77;0.60;;;26.90;63.10;;;;;;5034019;28;20427;-71
2022/06/20 16:08:17;;;;;;;0.80;0.63;;;27.10;63.40;;;;;;5033914;28;20488;-70
2022/06/20 16:10:49;;;;;;;0.90;0.80;;;27.30;62.70;;;;;;5033819;28;20485;-70
2022/06/20 16:13:20;;;;;;;0.70;0.70;;;27.20;62.40;;;;;;5033987;28;20549;-71
2022/06/20 16:15:48;;;;;;;0.70;0.70;;;27.20;62.90;;;;;;5033816;28;20443;-71
2022/06/20 16:18:19;;;;;;;0.80;0.80;;;27.00;62.60;;;;;;5033462;28;20822;-70
2022/06/20 16:20:58;;;;;;;0.70;0.70;;;26.90;63.30;;;;;;5033641;28;20525;-70
2022/06/20 16:23:34;;;;;;;0.70;0.70;;;26.80;63.60;;;;;;5033745;28;20490;-70
2022/06/20 16:26:06;;;;;;;0.80;0.73;;;26.80;63.60;;;;;;5033584;28;20529;-71
2022/06/20 16:28:34;;;;;;;0.70;0.70;;;26.90;63.20;;;;;;5033653;28;20443;-72
2022/06/20 16:31:19;;;;;;;1.43;0.80;;;27.00;63.20;;;;;;5033454;28;20463;-72
2022/06/20 16:33:49;;;;;;;0.77;0.77;;;26.80;63.20;;;;;;5033385;28;20977;-72
2022/06/20 16:36:19;;;;;;;0.70;0.60;;;26.70;63.50;;;;;;5033558;28;20443;-72
2022/06/20 16:38:52;;;;;;;0.90;0.70;;;26.60;63.60;;;;;;5033975;28;20451;-72
2022/06/20 16:41:26;;;;;;;0.70;0.60;;;26.50;63.90;;;;;;5033372;28;20491;-72
2022/06/20 16:44:01;;;;;;;0.80;0.80;;;26.50;64.60;;;;;;5033242;28;20431;-72